sensor_id;sensor_type;location;lat;lon;timestamp;P1;durP1;ratioP1;P2;durP2;ratioP2
7231;SDS011;3657;49.630;11.018;2022-10-30T00:00:23;12.57;;;11.97;;
7231;SDS011;3657;49.630;11.018;2022-10-30T00:02:50;13.10;;;12.40;;
7231;SDS011;3657;49.630;11.018;2022-10-30T00:05:17;13.57;;;12.87;;
7231;SDS011;3657;49.630;11.018;2022-10-30T00:07:44;13.20;;;12.40;;
7231;SDS011;3657;49.630;11.018;2022-10-30T00:10:11;12.53;;;11.93;;
7231;SDS011;3657;49.630;11.018;2022-10-30T00:12:38;13.63;;;12.67;;
7231;SDS011;3657;49.630;11.018;2022-10-30T00:15:07;13.50;;;12.70;;
7231;SDS011;3657;49.630;11.018;2022-10-30T00:17:34;12.63;;;11.93;;
7231;SDS011;3657;49.630;11.018;2022-10-30T00:20:01;12.83;;;12.03;;
7231;SDS011;3657;49.630;11.018;2022-10-30T00:22:28;12.23;;;11.57;;
7231;SDS011;3657;49.630;11.018;2022-10-30T00:24:55;13.63;;;12.17;;
7231;SDS011;3657;49.630;11.018;2022-10-30T00:27:22;13.53;;;12.83;;
7231;SDS011;3657;49.630;11.018;2022-10-30T00:29:48;12.60;;;12.00;;
7231;SDS011;3657;49.630;11.018;2022-10-30T00:32:16;12.30;;;11.60;;
7231;SDS011;3657;49.630;11.018;2022-10-30T00:34:43;12.87;;;12.27;;
7231;SDS011;3657;49.630;11.018;2022-10-30T00:37:10;12.50;;;11.80;;
7231;SDS011;3657;49.630;11.018;2022-10-30T00:39:36;12.70;;;11.60;;
7231;SDS011;3657;49.630;11.018;2022-10-30T00:42:03;13.00;;;12.40;;
7231;SDS011;3657;49.630;11.018;2022-10-30T00:44:37;13.07;;;12.17;;
7231;SDS011;3657;49.630;11.018;2022-10-30T00:47:10;12.47;;;11.67;;
7231;SDS011;3657;49.630;11.018;2022-10-30T00:49:43;13.47;;;12.57;;
7231;SDS011;3657;49.630;11.018;2022-10-30T00:52:16;12.87;;;12.03;;
7231;SDS011;3657;49.630;11.018;2022-10-30T00:54:43;12.87;;;12.07;;
7231;SDS011;3657;49.630;11.018;2022-10-30T00:57:10;13.67;;;12.80;;
7231;SDS011;3657;49.630;11.018;2022-10-30T00:59:37;12.90;;;12.17;;
7231;SDS011;3657;49.630;11.018;2022-10-30T01:02:04;13.07;;;12.37;;
7231;SDS011;3657;49.630;11.018;2022-10-30T01:04:33;12.93;;;12.03;;
7231;SDS011;3657;49.630;11.018;2022-10-30T01:07:06;12.40;;;11.70;;
7231;SDS011;3657;49.630;11.018;2022-10-30T01:09:36;12.73;;;11.87;;
7231;SDS011;3657;49.630;11.018;2022-10-30T01:12:04;12.43;;;11.67;;
7231;SDS011;3657;49.630;11.018;2022-10-30T01:14:32;11.93;;;11.23;;
7231;SDS011;3657;49.630;11.018;2022-10-30T01:17:05;12.87;;;12.20;;
7231;SDS011;3657;49.630;11.018;2022-10-30T01:19:47;12.10;;;11.43;;
7231;SDS011;3657;49.630;11.018;2022-10-30T01:22:28;12.60;;;11.90;;
7231;SDS011;3657;49.630;11.018;2022-10-30T01:25:06;11.90;;;11.13;;
7231;SDS011;3657;49.630;11.018;2022-10-30T01:27:41;12.00;;;11.40;;
7231;SDS011;3657;49.630;11.018;2022-10-30T01:30:15;11.60;;;11.10;;
7231;SDS011;3657;49.630;11.018;2022-10-30T01:32:58;11.50;;;10.80;;
7231;SDS011;3657;49.630;11.018;2022-10-30T01:35:34;12.87;;;12.17;;
7231;SDS011;3657;49.630;11.018;2022-10-30T01:38:08;11.33;;;10.83;;
7231;SDS011;3657;49.630;11.018;2022-10-30T01:40:42;11.67;;;11.07;;
7231;SDS011;3657;49.630;11.018;2022-10-30T01:43:09;11.47;;;11.07;;
7231;SDS011;3657;49.630;11.018;2022-10-30T01:45:42;12.03;;;11.33;;
7231;SDS011;3657;49.630;11.018;2022-10-30T01:48:26;12.53;;;11.93;;
7231;SDS011;3657;49.630;11.018;2022-10-30T01:51:10;12.23;;;11.57;;
7231;SDS011;3657;49.630;11.018;2022-10-30T01:53:45;12.10;;;11.13;;
7231;SDS011;3657;49.630;11.018;2022-10-30T01:56:25;12.27;;;11.70;;
7231;SDS011;3657;49.630;11.018;2022-10-30T01:59:04;11.90;;;11.40;;
7231;SDS011;3657;49.630;11.018;2022-10-30T02:01:36;11.13;;;10.63;;
7231;SDS011;3657;49.630;11.018;2022-10-30T02:04:05;11.93;;;11.37;;
7231;SDS011;3657;49.630;11.018;2022-10-30T02:06:33;11.97;;;11.20;;
7231;SDS011;3657;49.630;11.018;2022-10-30T02:09:02;11.87;;;11.37;;
7231;SDS011;3657;49.630;11.018;2022-10-30T02:11:29;12.27;;;11.67;;
7231;SDS011;3657;49.630;11.018;2022-10-30T02:13:58;11.60;;;11.07;;
7231;SDS011;3657;49.630;11.018;2022-10-30T02:16:27;12.27;;;11.63;;
7231;SDS011;3657;49.630;11.018;2022-10-30T02:18:54;11.87;;;11.20;;
7231;SDS011;3657;49.630;11.018;2022-10-30T02:21:22;11.70;;;11.00;;
7231;SDS011;3657;49.630;11.018;2022-10-30T02:23:49;11.47;;;10.97;;
7231;SDS011;3657;49.630;11.018;2022-10-30T02:26:15;11.47;;;10.87;;
7231;SDS011;3657;49.630;11.018;2022-10-30T02:28:42;12.60;;;11.90;;
7231;SDS011;3657;49.630;11.018;2022-10-30T02:31:09;12.30;;;11.70;;
7231;SDS011;3657;49.630;11.018;2022-10-30T02:33:35;11.10;;;10.63;;
7231;SDS011;3657;49.630;11.018;2022-10-30T02:36:02;11.57;;;11.07;;
7231;SDS011;3657;49.630;11.018;2022-10-30T02:38:31;11.37;;;10.80;;
7231;SDS011;3657;49.630;11.018;2022-10-30T02:40:57;10.93;;;10.37;;
7231;SDS011;3657;49.630;11.018;2022-10-30T02:43:24;14.03;;;13.03;;
7231;SDS011;3657;49.630;11.018;2022-10-30T02:45:51;11.70;;;10.87;;
7231;SDS011;3657;49.630;11.018;2022-10-30T02:48:19;10.50;;;9.90;;
7231;SDS011;3657;49.630;11.018;2022-10-30T02:50:46;11.67;;;11.00;;
7231;SDS011;3657;49.630;11.018;2022-10-30T02:53:12;12.53;;;11.77;;
7231;SDS011;3657;49.630;11.018;2022-10-30T02:55:40;12.00;;;11.23;;
7231;SDS011;3657;49.630;11.018;2022-10-30T02:58:07;12.60;;;11.73;;
7231;SDS011;3657;49.630;11.018;2022-10-30T03:00:35;11.60;;;11.10;;
7231;SDS011;3657;49.630;11.018;2022-10-30T03:03:01;12.50;;;11.90;;
7231;SDS011;3657;49.630;11.018;2022-10-30T03:05:28;11.53;;;10.93;;
7231;SDS011;3657;49.630;11.018;2022-10-30T03:07:55;11.50;;;10.90;;
7231;SDS011;3657;49.630;11.018;2022-10-30T03:10:21;12.10;;;11.40;;
7231;SDS011;3657;49.630;11.018;2022-10-30T03:12:49;11.77;;;11.17;;
7231;SDS011;3657;49.630;11.018;2022-10-30T03:15:16;13.03;;;12.17;;
7231;SDS011;3657;49.630;11.018;2022-10-30T03:17:43;12.23;;;11.43;;
7231;SDS011;3657;49.630;11.018;2022-10-30T03:20:10;11.93;;;11.27;;
7231;SDS011;3657;49.630;11.018;2022-10-30T03:22:37;11.77;;;11.27;;
7231;SDS011;3657;49.630;11.018;2022-10-30T03:25:04;13.57;;;12.27;;
7231;SDS011;3657;49.630;11.018;2022-10-30T03:27:31;11.13;;;10.33;;
7231;SDS011;3657;49.630;11.018;2022-10-30T03:29:59;11.17;;;10.47;;
7231;SDS011;3657;49.630;11.018;2022-10-30T03:32:26;11.43;;;10.83;;
7231;SDS011;3657;49.630;11.018;2022-10-30T03:34:52;11.87;;;11.23;;
7231;SDS011;3657;49.630;11.018;2022-10-30T03:37:19;10.73;;;10.23;;
7231;SDS011;3657;49.630;11.018;2022-10-30T03:39:46;10.70;;;10.17;;
7231;SDS011;3657;49.630;11.018;2022-10-30T03:42:12;11.00;;;10.50;;
7231;SDS011;3657;49.630;11.018;2022-10-30T03:44:39;11.43;;;10.73;;
7231;SDS011;3657;49.630;11.018;2022-10-30T03:47:07;10.87;;;10.37;;
7231;SDS011;3657;49.630;11.018;2022-10-30T03:49:34;11.30;;;10.60;;
7231;SDS011;3657;49.630;11.018;2022-10-30T03:52:00;12.13;;;11.43;;
7231;SDS011;3657;49.630;11.018;2022-10-30T03:54:27;11.03;;;10.53;;
7231;SDS011;3657;49.630;11.018;2022-10-30T03:56:54;11.77;;;10.83;;
7231;SDS011;3657;49.630;11.018;2022-10-30T03:59:20;11.23;;;10.63;;
7231;SDS011;3657;49.630;11.018;2022-10-30T04:01:47;11.10;;;10.40;;
7231;SDS011;3657;49.630;11.018;2022-10-30T04:04:15;11.13;;;10.17;;
7231;SDS011;3657;49.630;11.018;2022-10-30T04:06:42;11.03;;;10.40;;
7231;SDS011;3657;49.630;11.018;2022-10-30T04:09:09;10.93;;;10.43;;
7231;SDS011;3657;49.630;11.018;2022-10-30T04:11:35;11.13;;;10.53;;
7231;SDS011;3657;49.630;11.018;2022-10-30T04:14:02;10.73;;;10.23;;
7231;SDS011;3657;49.630;11.018;2022-10-30T04:16:29;10.87;;;10.27;;
7231;SDS011;3657;49.630;11.018;2022-10-30T04:18:55;12.03;;;11.00;;
7231;SDS011;3657;49.630;11.018;2022-10-30T04:21:24;11.30;;;10.77;;
7231;SDS011;3657;49.630;11.018;2022-10-30T04:23:50;9.93;;;9.40;;
7231;SDS011;3657;49.630;11.018;2022-10-30T04:26:17;10.60;;;9.90;;
7231;SDS011;3657;49.630;11.018;2022-10-30T04:28:46;10.77;;;10.27;;
7231;SDS011;3657;49.630;11.018;2022-10-30T04:31:13;10.93;;;10.33;;
7231;SDS011;3657;49.630;11.018;2022-10-30T04:33:39;10.70;;;10.20;;
7231;SDS011;3657;49.630;11.018;2022-10-30T04:36:06;11.17;;;10.50;;
7231;SDS011;3657;49.630;11.018;2022-10-30T04:38:35;10.47;;;10.07;;
7231;SDS011;3657;49.630;11.018;2022-10-30T04:41:01;11.03;;;10.47;;
7231;SDS011;3657;49.630;11.018;2022-10-30T04:43:29;9.93;;;9.40;;
7231;SDS011;3657;49.630;11.018;2022-10-30T04:45:56;10.60;;;10.10;;
7231;SDS011;3657;49.630;11.018;2022-10-30T04:48:23;10.27;;;9.77;;
7231;SDS011;3657;49.630;11.018;2022-10-30T04:50:49;10.83;;;10.23;;
7231;SDS011;3657;49.630;11.018;2022-10-30T04:53:16;10.70;;;10.20;;
7231;SDS011;3657;49.630;11.018;2022-10-30T04:55:46;9.83;;;9.43;;
7231;SDS011;3657;49.630;11.018;2022-10-30T04:58:13;11.30;;;10.70;;
7231;SDS011;3657;49.630;11.018;2022-10-30T05:00:40;12.60;;;11.90;;
7231;SDS011;3657;49.630;11.018;2022-10-30T05:03:08;11.57;;;10.83;;
7231;SDS011;3657;49.630;11.018;2022-10-30T05:05:41;10.33;;;9.83;;
7231;SDS011;3657;49.630;11.018;2022-10-30T05:08:08;12.00;;;11.50;;
7231;SDS011;3657;49.630;11.018;2022-10-30T05:10:37;12.17;;;11.30;;
7231;SDS011;3657;49.630;11.018;2022-10-30T05:13:05;10.90;;;9.87;;
7231;SDS011;3657;49.630;11.018;2022-10-30T05:15:33;10.50;;;10.00;;
7231;SDS011;3657;49.630;11.018;2022-10-30T05:18:00;10.23;;;9.70;;
7231;SDS011;3657;49.630;11.018;2022-10-30T05:20:26;10.10;;;9.60;;
7231;SDS011;3657;49.630;11.018;2022-10-30T05:22:53;13.73;;;12.70;;
7231;SDS011;3657;49.630;11.018;2022-10-30T05:25:21;10.90;;;10.40;;
7231;SDS011;3657;49.630;11.018;2022-10-30T05:27:48;11.50;;;10.80;;
7231;SDS011;3657;49.630;11.018;2022-10-30T05:30:16;11.30;;;10.37;;
7231;SDS011;3657;49.630;11.018;2022-10-30T05:32:42;11.10;;;10.60;;
7231;SDS011;3657;49.630;11.018;2022-10-30T05:35:09;10.80;;;10.20;;
7231;SDS011;3657;49.630;11.018;2022-10-30T05:37:36;11.67;;;11.03;;
7231;SDS011;3657;49.630;11.018;2022-10-30T05:40:03;11.00;;;10.47;;
7231;SDS011;3657;49.630;11.018;2022-10-30T05:42:30;11.10;;;10.60;;
7231;SDS011;3657;49.630;11.018;2022-10-30T05:44:57;12.60;;;11.80;;
7231;SDS011;3657;49.630;11.018;2022-10-30T05:47:25;11.40;;;10.80;;
7231;SDS011;3657;49.630;11.018;2022-10-30T05:49:52;12.07;;;11.27;;
7231;SDS011;3657;49.630;11.018;2022-10-30T05:52:18;11.43;;;10.83;;
7231;SDS011;3657;49.630;11.018;2022-10-30T05:54:45;11.70;;;10.83;;
7231;SDS011;3657;49.630;11.018;2022-10-30T05:57:12;12.03;;;11.33;;
7231;SDS011;3657;49.630;11.018;2022-10-30T05:59:38;10.47;;;9.83;;
7231;SDS011;3657;49.630;11.018;2022-10-30T06:02:05;11.47;;;10.87;;
7231;SDS011;3657;49.630;11.018;2022-10-30T06:04:33;11.00;;;10.30;;
7231;SDS011;3657;49.630;11.018;2022-10-30T06:07:00;11.00;;;10.40;;
7231;SDS011;3657;49.630;11.018;2022-10-30T06:09:27;12.07;;;11.00;;
7231;SDS011;3657;49.630;11.018;2022-10-30T06:11:53;10.50;;;9.80;;
7231;SDS011;3657;49.630;11.018;2022-10-30T06:14:20;10.47;;;10.07;;
7231;SDS011;3657;49.630;11.018;2022-10-30T06:16:47;11.37;;;10.67;;
7231;SDS011;3657;49.630;11.018;2022-10-30T06:19:14;13.77;;;12.63;;
7231;SDS011;3657;49.630;11.018;2022-10-30T06:21:42;10.67;;;10.27;;
7231;SDS011;3657;49.630;11.018;2022-10-30T06:24:09;16.23;;;15.00;;
7231;SDS011;3657;49.630;11.018;2022-10-30T06:26:35;11.50;;;10.80;;
7231;SDS011;3657;49.630;11.018;2022-10-30T06:29:02;13.27;;;12.17;;
7231;SDS011;3657;49.630;11.018;2022-10-30T06:31:29;13.20;;;12.30;;
7231;SDS011;3657;49.630;11.018;2022-10-30T06:33:56;12.77;;;11.70;;
7231;SDS011;3657;49.630;11.018;2022-10-30T06:36:22;13.10;;;12.10;;
7231;SDS011;3657;49.630;11.018;2022-10-30T06:38:50;10.73;;;10.33;;
7231;SDS011;3657;49.630;11.018;2022-10-30T06:41:17;11.47;;;10.90;;
7231;SDS011;3657;49.630;11.018;2022-10-30T06:43:44;12.67;;;11.97;;
7231;SDS011;3657;49.630;11.018;2022-10-30T06:46:10;12.20;;;11.60;;
7231;SDS011;3657;49.630;11.018;2022-10-30T06:48:37;12.73;;;11.90;;
7231;SDS011;3657;49.630;11.018;2022-10-30T06:51:04;11.10;;;10.60;;
7231;SDS011;3657;49.630;11.018;2022-10-30T06:53:31;11.30;;;10.77;;
7231;SDS011;3657;49.630;11.018;2022-10-30T06:55:59;11.47;;;10.87;;
7231;SDS011;3657;49.630;11.018;2022-10-30T06:58:28;13.23;;;12.00;;
7231;SDS011;3657;49.630;11.018;2022-10-30T07:00:58;10.00;;;9.60;;
7231;SDS011;3657;49.630;11.018;2022-10-30T07:03:25;9.23;;;8.93;;
7231;SDS011;3657;49.630;11.018;2022-10-30T07:05:52;11.17;;;10.57;;
7231;SDS011;3657;49.630;11.018;2022-10-30T07:08:18;11.53;;;10.73;;
7231;SDS011;3657;49.630;11.018;2022-10-30T07:10:45;11.13;;;10.53;;
7231;SDS011;3657;49.630;11.018;2022-10-30T07:13:13;11.17;;;10.47;;
7231;SDS011;3657;49.630;11.018;2022-10-30T07:15:40;10.20;;;9.70;;
7231;SDS011;3657;49.630;11.018;2022-10-30T07:18:08;10.47;;;9.97;;
7231;SDS011;3657;49.630;11.018;2022-10-30T07:20:35;11.87;;;11.07;;
7231;SDS011;3657;49.630;11.018;2022-10-30T07:23:02;11.73;;;11.17;;
7231;SDS011;3657;49.630;11.018;2022-10-30T07:25:29;12.13;;;11.07;;
7231;SDS011;3657;49.630;11.018;2022-10-30T07:27:56;12.03;;;11.30;;
7231;SDS011;3657;49.630;11.018;2022-10-30T07:30:25;11.80;;;11.10;;
7231;SDS011;3657;49.630;11.018;2022-10-30T07:32:55;11.97;;;11.37;;
7231;SDS011;3657;49.630;11.018;2022-10-30T07:35:23;14.37;;;13.33;;
7231;SDS011;3657;49.630;11.018;2022-10-30T07:37:49;17.60;;;16.30;;
7231;SDS011;3657;49.630;11.018;2022-10-30T07:40:16;16.97;;;15.77;;
7231;SDS011;3657;49.630;11.018;2022-10-30T07:42:43;15.37;;;14.37;;
7231;SDS011;3657;49.630;11.018;2022-10-30T07:45:10;15.77;;;14.60;;
7231;SDS011;3657;49.630;11.018;2022-10-30T07:47:39;14.40;;;13.40;;
7231;SDS011;3657;49.630;11.018;2022-10-30T07:50:06;14.30;;;13.07;;
7231;SDS011;3657;49.630;11.018;2022-10-30T07:52:33;13.57;;;12.77;;
7231;SDS011;3657;49.630;11.018;2022-10-30T07:55:00;12.50;;;11.73;;
7231;SDS011;3657;49.630;11.018;2022-10-30T07:57:29;13.27;;;12.47;;
7231;SDS011;3657;49.630;11.018;2022-10-30T07:59:57;19.93;;;17.93;;
7231;SDS011;3657;49.630;11.018;2022-10-30T08:02:23;30.47;;;27.83;;
7231;SDS011;3657;49.630;11.018;2022-10-30T08:04:51;30.27;;;27.53;;
7231;SDS011;3657;49.630;11.018;2022-10-30T08:07:18;60.10;;;51.90;;
7231;SDS011;3657;49.630;11.018;2022-10-30T08:09:45;30.37;;;27.27;;
7231;SDS011;3657;49.630;11.018;2022-10-30T08:12:21;26.60;;;24.30;;
7231;SDS011;3657;49.630;11.018;2022-10-30T08:14:48;36.40;;;32.90;;
7231;SDS011;3657;49.630;11.018;2022-10-30T08:17:14;20.20;;;18.47;;
7231;SDS011;3657;49.630;11.018;2022-10-30T08:19:41;19.27;;;17.57;;
7231;SDS011;3657;49.630;11.018;2022-10-30T08:22:10;21.07;;;19.57;;
7231;SDS011;3657;49.630;11.018;2022-10-30T08:24:37;21.43;;;19.90;;
7231;SDS011;3657;49.630;11.018;2022-10-30T08:27:04;34.20;;;30.63;;
7231;SDS011;3657;49.630;11.018;2022-10-30T08:29:31;24.70;;;22.63;;
7231;SDS011;3657;49.630;11.018;2022-10-30T08:31:58;20.47;;;19.07;;
7231;SDS011;3657;49.630;11.018;2022-10-30T08:34:25;24.00;;;21.93;;
7231;SDS011;3657;49.630;11.018;2022-10-30T08:36:55;18.60;;;17.27;;
7231;SDS011;3657;49.630;11.018;2022-10-30T08:39:23;15.77;;;13.63;;
7231;SDS011;3657;49.630;11.018;2022-10-30T08:41:50;15.63;;;14.50;;
7231;SDS011;3657;49.630;11.018;2022-10-30T08:44:17;13.63;;;12.47;;
7231;SDS011;3657;49.630;11.018;2022-10-30T08:46:43;14.07;;;13.07;;
7231;SDS011;3657;49.630;11.018;2022-10-30T08:49:10;13.03;;;12.13;;
7231;SDS011;3657;49.630;11.018;2022-10-30T08:51:37;13.97;;;12.80;;
7231;SDS011;3657;49.630;11.018;2022-10-30T08:54:03;12.50;;;11.77;;
7231;SDS011;3657;49.630;11.018;2022-10-30T08:56:31;14.27;;;12.90;;
7231;SDS011;3657;49.630;11.018;2022-10-30T08:58:58;13.13;;;12.00;;
7231;SDS011;3657;49.630;11.018;2022-10-30T09:01:25;12.63;;;11.50;;
7231;SDS011;3657;49.630;11.018;2022-10-30T09:03:52;12.13;;;11.03;;
7231;SDS011;3657;49.630;11.018;2022-10-30T09:06:18;12.53;;;11.07;;
7231;SDS011;3657;49.630;11.018;2022-10-30T09:08:45;12.57;;;11.47;;
7231;SDS011;3657;49.630;11.018;2022-10-30T09:11:12;12.00;;;11.20;;
7231;SDS011;3657;49.630;11.018;2022-10-30T09:13:40;13.23;;;12.07;;
7231;SDS011;3657;49.630;11.018;2022-10-30T09:16:07;12.23;;;10.93;;
7231;SDS011;3657;49.630;11.018;2022-10-30T09:18:33;11.30;;;10.33;;
7231;SDS011;3657;49.630;11.018;2022-10-30T09:21:00;12.43;;;11.17;;
7231;SDS011;3657;49.630;11.018;2022-10-30T09:23:27;13.13;;;11.83;;
7231;SDS011;3657;49.630;11.018;2022-10-30T09:25:55;11.90;;;10.77;;
7231;SDS011;3657;49.630;11.018;2022-10-30T09:28:22;12.47;;;11.37;;
7231;SDS011;3657;49.630;11.018;2022-10-30T09:30:50;11.50;;;10.63;;
7231;SDS011;3657;49.630;11.018;2022-10-30T09:33:20;12.67;;;11.43;;
7231;SDS011;3657;49.630;11.018;2022-10-30T09:35:47;11.57;;;10.13;;
7231;SDS011;3657;49.630;11.018;2022-10-30T09:38:14;11.23;;;10.17;;
7231;SDS011;3657;49.630;11.018;2022-10-30T09:40:43;11.93;;;11.13;;
7231;SDS011;3657;49.630;11.018;2022-10-30T09:43:24;18.57;;;10.37;;
7231;SDS011;3657;49.630;11.018;2022-10-30T09:46:06;11.20;;;10.20;;
7231;SDS011;3657;49.630;11.018;2022-10-30T09:51:49;17.33;;;11.00;;
7231;SDS011;3657;49.630;11.018;2022-10-30T09:54:29;14.53;;;10.53;;
7231;SDS011;3657;49.630;11.018;2022-10-30T09:57:03;11.03;;;9.87;;
7231;SDS011;3657;49.630;11.018;2022-10-30T09:59:39;14.43;;;10.27;;
7231;SDS011;3657;49.630;11.018;2022-10-30T10:02:23;10.63;;;9.67;;
7231;SDS011;3657;49.630;11.018;2022-10-30T10:04:58;11.57;;;10.07;;
7231;SDS011;3657;49.630;11.018;2022-10-30T10:07:29;10.57;;;9.50;;
7231;SDS011;3657;49.630;11.018;2022-10-30T10:10:02;12.40;;;11.13;;
7231;SDS011;3657;49.630;11.018;2022-10-30T10:12:32;13.17;;;9.63;;
7231;SDS011;3657;49.630;11.018;2022-10-30T10:15:05;10.60;;;9.67;;
7231;SDS011;3657;49.630;11.018;2022-10-30T10:17:41;10.07;;;9.27;;
7231;SDS011;3657;49.630;11.018;2022-10-30T10:20:12;12.30;;;8.93;;
7231;SDS011;3657;49.630;11.018;2022-10-30T10:22:44;9.73;;;9.23;;
7231;SDS011;3657;49.630;11.018;2022-10-30T10:25:14;9.80;;;8.80;;
7231;SDS011;3657;49.630;11.018;2022-10-30T10:27:48;8.77;;;8.17;;
7231;SDS011;3657;49.630;11.018;2022-10-30T10:30:21;11.47;;;10.37;;
7231;SDS011;3657;49.630;11.018;2022-10-30T10:32:56;9.87;;;8.97;;
7231;SDS011;3657;49.630;11.018;2022-10-30T10:35:56;9.53;;;9.03;;
7231;SDS011;3657;49.630;11.018;2022-10-30T10:38:40;11.97;;;10.87;;
7231;SDS011;3657;49.630;11.018;2022-10-30T10:41:17;10.30;;;9.70;;
7231;SDS011;3657;49.630;11.018;2022-10-30T10:43:57;9.40;;;8.90;;
7231;SDS011;3657;49.630;11.018;2022-10-30T10:46:34;9.43;;;8.73;;
7231;SDS011;3657;49.630;11.018;2022-10-30T10:49:15;9.43;;;8.80;;
7231;SDS011;3657;49.630;11.018;2022-10-30T10:51:51;9.10;;;8.43;;
7231;SDS011;3657;49.630;11.018;2022-10-30T10:54:22;9.77;;;9.00;;
7231;SDS011;3657;49.630;11.018;2022-10-30T10:56:53;9.20;;;8.27;;
7231;SDS011;3657;49.630;11.018;2022-10-30T10:59:22;9.77;;;9.03;;
7231;SDS011;3657;49.630;11.018;2022-10-30T11:01:59;9.97;;;9.27;;
7231;SDS011;3657;49.630;11.018;2022-10-30T11:04:48;7.33;;;6.83;;
7231;SDS011;3657;49.630;11.018;2022-10-30T11:07:20;9.57;;;8.67;;
7231;SDS011;3657;49.630;11.018;2022-10-30T11:09:49;7.73;;;7.33;;
7231;SDS011;3657;49.630;11.018;2022-10-30T11:12:17;8.30;;;7.80;;
7231;SDS011;3657;49.630;11.018;2022-10-30T11:14:47;11.10;;;10.00;;
7231;SDS011;3657;49.630;11.018;2022-10-30T11:17:16;8.37;;;7.87;;
7231;SDS011;3657;49.630;11.018;2022-10-30T11:19:49;9.03;;;8.60;;
7231;SDS011;3657;49.630;11.018;2022-10-30T11:22:21;10.13;;;9.07;;
7231;SDS011;3657;49.630;11.018;2022-10-30T11:24:52;9.37;;;8.70;;
7231;SDS011;3657;49.630;11.018;2022-10-30T11:27:23;10.47;;;9.60;;
7231;SDS011;3657;49.630;11.018;2022-10-30T11:29:52;8.80;;;8.40;;
7231;SDS011;3657;49.630;11.018;2022-10-30T11:32:24;11.33;;;10.50;;
7231;SDS011;3657;49.630;11.018;2022-10-30T11:35:00;10.00;;;9.10;;
7231;SDS011;3657;49.630;11.018;2022-10-30T11:37:29;8.90;;;8.23;;
7231;SDS011;3657;49.630;11.018;2022-10-30T11:40:04;12.20;;;9.33;;
7231;SDS011;3657;49.630;11.018;2022-10-30T11:42:40;13.27;;;11.00;;
7231;SDS011;3657;49.630;11.018;2022-10-30T11:45:11;12.10;;;10.90;;
7231;SDS011;3657;49.630;11.018;2022-10-30T11:47:41;9.43;;;8.53;;
7231;SDS011;3657;49.630;11.018;2022-10-30T11:50:15;9.60;;;8.70;;
7231;SDS011;3657;49.630;11.018;2022-10-30T11:52:44;9.43;;;8.83;;
7231;SDS011;3657;49.630;11.018;2022-10-30T11:55:13;7.73;;;7.33;;
7231;SDS011;3657;49.630;11.018;2022-10-30T11:57:42;8.10;;;7.67;;
7231;SDS011;3657;49.630;11.018;2022-10-30T12:00:15;7.73;;;7.33;;
7231;SDS011;3657;49.630;11.018;2022-10-30T12:02:44;8.60;;;8.20;;
7231;SDS011;3657;49.630;11.018;2022-10-30T12:08:14;8.17;;;7.67;;
7231;SDS011;3657;49.630;11.018;2022-10-30T12:10:47;8.03;;;7.63;;
7231;SDS011;3657;49.630;11.018;2022-10-30T12:13:22;9.03;;;8.43;;
7231;SDS011;3657;49.630;11.018;2022-10-30T12:15:50;8.53;;;8.13;;
7231;SDS011;3657;49.630;11.018;2022-10-30T12:18:30;8.50;;;8.00;;
7231;SDS011;3657;49.630;11.018;2022-10-30T12:20:59;8.87;;;8.47;;
7231;SDS011;3657;49.630;11.018;2022-10-30T12:23:28;8.07;;;7.67;;
7231;SDS011;3657;49.630;11.018;2022-10-30T12:25:56;8.07;;;7.57;;
7231;SDS011;3657;49.630;11.018;2022-10-30T12:28:25;9.27;;;8.63;;
7231;SDS011;3657;49.630;11.018;2022-10-30T12:30:54;7.77;;;7.47;;
7231;SDS011;3657;49.630;11.018;2022-10-30T12:33:24;8.70;;;8.13;;
7231;SDS011;3657;49.630;11.018;2022-10-30T12:35:54;9.50;;;8.67;;
7231;SDS011;3657;49.630;11.018;2022-10-30T12:38:25;7.77;;;7.37;;
7231;SDS011;3657;49.630;11.018;2022-10-30T12:40:57;8.40;;;7.90;;
7231;SDS011;3657;49.630;11.018;2022-10-30T12:43:29;8.70;;;8.20;;
7231;SDS011;3657;49.630;11.018;2022-10-30T12:46:04;8.23;;;7.67;;
7231;SDS011;3657;49.630;11.018;2022-10-30T12:48:40;7.60;;;7.30;;
7231;SDS011;3657;49.630;11.018;2022-10-30T12:51:16;8.50;;;8.10;;
7231;SDS011;3657;49.630;11.018;2022-10-30T12:53:52;8.30;;;7.90;;
7231;SDS011;3657;49.630;11.018;2022-10-30T12:56:24;8.30;;;7.73;;
7231;SDS011;3657;49.630;11.018;2022-10-30T12:58:56;9.77;;;9.07;;
7231;SDS011;3657;49.630;11.018;2022-10-30T13:01:30;8.10;;;7.80;;
7231;SDS011;3657;49.630;11.018;2022-10-30T13:04:04;8.13;;;7.63;;
7231;SDS011;3657;49.630;11.018;2022-10-30T13:06:35;8.97;;;8.00;;
7231;SDS011;3657;49.630;11.018;2022-10-30T13:09:11;8.13;;;7.63;;
7231;SDS011;3657;49.630;11.018;2022-10-30T13:11:44;8.10;;;7.80;;
7231;SDS011;3657;49.630;11.018;2022-10-30T13:14:16;8.43;;;8.03;;
7231;SDS011;3657;49.630;11.018;2022-10-30T13:16:49;9.27;;;8.87;;
7231;SDS011;3657;49.630;11.018;2022-10-30T13:19:16;8.90;;;8.30;;
7231;SDS011;3657;49.630;11.018;2022-10-30T13:21:46;10.13;;;9.23;;
7231;SDS011;3657;49.630;11.018;2022-10-30T13:24:20;8.77;;;8.43;;
7231;SDS011;3657;49.630;11.018;2022-10-30T13:26:58;8.63;;;8.23;;
7231;SDS011;3657;49.630;11.018;2022-10-30T13:29:30;8.13;;;7.70;;
7231;SDS011;3657;49.630;11.018;2022-10-30T13:32:18;9.17;;;8.63;;
7231;SDS011;3657;49.630;11.018;2022-10-30T13:34:53;8.00;;;7.50;;
7231;SDS011;3657;49.630;11.018;2022-10-30T13:37:26;8.63;;;8.10;;
7231;SDS011;3657;49.630;11.018;2022-10-30T13:40:12;8.60;;;8.10;;
7231;SDS011;3657;49.630;11.018;2022-10-30T13:42:47;8.97;;;8.57;;
7231;SDS011;3657;49.630;11.018;2022-10-30T13:45:25;8.13;;;7.47;;
7231;SDS011;3657;49.630;11.018;2022-10-30T13:48:06;9.27;;;8.63;;
7231;SDS011;3657;49.630;11.018;2022-10-30T13:50:41;8.77;;;8.17;;
7231;SDS011;3657;49.630;11.018;2022-10-30T13:53:22;7.60;;;7.30;;
7231;SDS011;3657;49.630;11.018;2022-10-30T13:55:55;8.30;;;7.63;;
7231;SDS011;3657;49.630;11.018;2022-10-30T13:58:24;8.40;;;7.87;;
7231;SDS011;3657;49.630;11.018;2022-10-30T14:00:58;8.17;;;7.77;;
7231;SDS011;3657;49.630;11.018;2022-10-30T14:03:32;8.10;;;7.57;;
7231;SDS011;3657;49.630;11.018;2022-10-30T14:06:10;8.70;;;8.30;;
7231;SDS011;3657;49.630;11.018;2022-10-30T14:08:45;8.70;;;8.30;;
7231;SDS011;3657;49.630;11.018;2022-10-30T14:11:18;8.27;;;7.83;;
7231;SDS011;3657;49.630;11.018;2022-10-30T14:13:49;8.40;;;7.90;;
7231;SDS011;3657;49.630;11.018;2022-10-30T14:16:36;8.90;;;8.03;;
7231;SDS011;3657;49.630;11.018;2022-10-30T14:19:07;10.40;;;8.37;;
7231;SDS011;3657;49.630;11.018;2022-10-30T14:21:37;8.47;;;8.10;;
7231;SDS011;3657;49.630;11.018;2022-10-30T14:24:12;8.17;;;7.87;;
7231;SDS011;3657;49.630;11.018;2022-10-30T14:26:49;8.37;;;7.87;;
7231;SDS011;3657;49.630;11.018;2022-10-30T14:29:36;17.27;;;8.47;;
7231;SDS011;3657;49.630;11.018;2022-10-30T14:38:22;8.97;;;8.57;;
7231;SDS011;3657;49.630;11.018;2022-10-30T14:44:01;9.87;;;9.27;;
7231;SDS011;3657;49.630;11.018;2022-10-30T14:46:33;8.63;;;8.17;;
7231;SDS011;3657;49.630;11.018;2022-10-30T14:49:14;9.57;;;9.07;;
7231;SDS011;3657;49.630;11.018;2022-10-30T14:52:03;9.00;;;8.60;;
7231;SDS011;3657;49.630;11.018;2022-10-30T14:54:37;8.90;;;8.43;;
7231;SDS011;3657;49.630;11.018;2022-10-30T14:57:18;8.80;;;8.30;;
7231;SDS011;3657;49.630;11.018;2022-10-30T14:59:47;9.50;;;8.87;;
7231;SDS011;3657;49.630;11.018;2022-10-30T15:02:31;9.47;;;8.80;;
7231;SDS011;3657;49.630;11.018;2022-10-30T15:05:21;10.57;;;10.07;;
7231;SDS011;3657;49.630;11.018;2022-10-30T15:08:12;9.37;;;8.73;;
7231;SDS011;3657;49.630;11.018;2022-10-30T15:10:57;10.30;;;9.47;;
7231;SDS011;3657;49.630;11.018;2022-10-30T15:13:34;9.23;;;8.60;;
7231;SDS011;3657;49.630;11.018;2022-10-30T15:16:03;8.83;;;8.47;;